Time;durP1;ratioP1;P1;durP2;ratioP2;P2;SDS_P1;SDS_P2;PMS_P1;PMS_P2;Temp;Humidity;BMP_temperature;BMP_pressure;BME280_temperature;BME280_humidity;BME280_pressure;Samples;Min_cycle;Max_cycle;Signal;HPM_P1;HPM_P2
2023/04/08 00:03:47;;;;;;;28.10;22.17;;;;;;;;;;10149553;28;20075;-64
2023/04/08 00:08:40;;;;;;;23.85;21.05;;;;;;;;;;10148715;28;20404;-64
2023/04/08 00:13:33;;;;;;;22.98;20.58;;;;;;;;;;10145517;28;20484;-63
2023/04/08 00:18:26;;;;;;;25.27;20.70;;;;;;;;;;10148359;28;20078;-63
2023/04/08 00:23:20;;;;;;;24.95;18.65;;;;;;;;;;10148475;28;20493;-64
2023/04/08 00:28:13;;;;;;;28.23;21.50;;;;;;;;;;10148034;28;20143;-64
2023/04/08 00:33:07;;;;;;;29.10;21.45;;;;;;;;;;10147417;28;20135;-63
2023/04/08 00:38:00;;;;;;;21.48;19.17;;;;;;;;;;10129921;28;20135;-64
2023/04/08 00:42:53;;;;;;;23.33;19.30;;;;;;;;;;10140777;28;20516;-64
2023/04/08 00:47:51;;;;;;;23.70;20.05;;;;;;;;;;10129568;28;20432;-64
2023/04/08 00:52:45;;;;;;;25.35;20.70;;;;;;;;;;10147039;28;20572;-66
2023/04/08 00:57:38;;;;;;;24.10;20.30;;;;;;;;;;10129015;28;20076;-65
2023/04/08 01:02:42;;;;;;;26.80;19.52;;;;;;;;;;10128770;28;20047;-65
2023/04/08 01:07:40;;;;;;;26.55;20.13;;;;;;;;;;10104472;28;20102;-65
2023/04/08 01:12:39;;;;;;;23.13;19.92;;;;;;;;;;10112428;28;20049;-64
2023/04/08 01:17:32;;;;;;;25.10;20.20;;;;;;;;;;10146039;28;20040;-64
2023/04/08 01:22:54;;;;;;;24.23;20.10;;;;;;;;;;10136806;28;20067;-64
2023/04/08 01:27:48;;;;;;;22.17;19.88;;;;;;;;;;10112526;28;20052;-64
2023/04/08 01:32:42;;;;;;;22.83;20.40;;;;;;;;;;10111837;28;20044;-65
2023/04/08 01:37:36;;;;;;;24.77;21.38;;;;;;;;;;10127964;28;20045;-65
2023/04/08 01:42:28;;;;;;;23.65;21.10;;;;;;;;;;10127888;28;20055;-65
2023/04/08 01:47:23;;;;;;;23.83;19.70;;;;;;;;;;10127956;28;20397;-64
2023/04/08 01:52:16;;;;;;;25.58;21.25;;;;;;;;;;10127526;28;20044;-64
2023/04/08 01:57:11;;;;;;;24.55;20.90;;;;;;;;;;10144991;28;20033;-65
2023/04/08 02:02:06;;;;;;;23.70;20.05;;;;;;;;;;10110891;28;20084;-65
2023/04/08 02:07:01;;;;;;;22.45;19.50;;;;;;;;;;10154533;28;20041;-65
2023/04/08 02:11:56;;;;;;;22.55;18.02;;;;;;;;;;10124431;28;20310;-65
2023/04/08 02:16:52;;;;;;;22.88;18.30;;;;;;;;;;10159127;28;20135;-64
2023/04/08 02:21:54;;;;;;;22.17;18.45;;;;;;;;;;10158362;28;20045;-64
2023/04/08 02:26:50;;;;;;;23.00;18.15;;;;;;;;;;10137423;28;20517;-65
2023/04/08 02:31:44;;;;;;;20.52;18.02;;;;;;;;;;10157684;28;20574;-65
2023/04/08 02:36:39;;;;;;;22.05;18.42;;;;;;;;;;10144879;28;20059;-65
2023/04/08 02:41:32;;;;;;;18.75;16.80;;;;;;;;;;10123596;28;20040;-66
2023/04/08 02:46:26;;;;;;;19.83;16.73;;;;;;;;;;10139529;28;20056;-64
2023/04/08 02:51:19;;;;;;;21.27;17.60;;;;;;;;;;10139317;28;20048;-65
2023/04/08 02:56:13;;;;;;;20.17;17.92;;;;;;;;;;10166025;28;20075;-64
2023/04/08 03:01:08;;;;;;;18.48;16.42;;;;;;;;;;10157141;28;20036;-65
2023/04/08 03:06:00;;;;;;;20.35;16.65;;;;;;;;;;10156851;28;20051;-64
2023/04/08 03:10:53;;;;;;;17.15;15.27;;;;;;;;;;10157711;28;20055;-65
2023/04/08 03:15:46;;;;;;;17.98;16.15;;;;;;;;;;10155030;28;20075;-65
2023/04/08 03:20:40;;;;;;;19.60;15.60;;;;;;;;;;10151565;28;20075;-66
2023/04/08 03:25:33;;;;;;;17.40;15.10;;;;;;;;;;10150832;28;20082;-65
2023/04/08 03:30:26;;;;;;;17.23;15.38;;;;;;;;;;10149886;28;20493;-65
2023/04/08 03:35:19;;;;;;;18.25;16.38;;;;;;;;;;10150442;28;20040;-65
2023/04/08 03:40:12;;;;;;;17.20;15.40;;;;;;;;;;10150281;28;20044;-65
2023/04/08 03:45:07;;;;;;;18.55;15.48;;;;;;;;;;10149581;28;20055;-65
2023/04/08 03:50:00;;;;;;;17.35;15.50;;;;;;;;;;10148901;28;20143;-65
2023/04/08 03:54:54;;;;;;;17.23;15.43;;;;;;;;;;10149872;28;20041;-65
2023/04/08 03:59:47;;;;;;;19.38;15.90;;;;;;;;;;10132000;28;20049;-65
2023/04/08 04:04:40;;;;;;;16.88;14.55;;;;;;;;;;10147353;28;20501;-65
2023/04/08 04:09:33;;;;;;;19.48;17.35;;;;;;;;;;10148383;28;20048;-64
2023/04/08 04:14:26;;;;;;;20.42;16.67;;;;;;;;;;10148876;28;20528;-65
2023/04/08 04:19:19;;;;;;;20.25;16.48;;;;;;;;;;10141782;28;20045;-64
2023/04/08 04:24:13;;;;;;;25.45;17.17;;;;;;;;;;10148791;28;20070;-66
2023/04/08 04:29:06;;;;;;;19.20;17.20;;;;;;;;;;10147449;28;20128;-65
2023/04/08 04:34:00;;;;;;;18.80;16.80;;;;;;;;;;10147613;28;20535;-65
2023/04/08 04:38:53;;;;;;;22.38;18.55;;;;;;;;;;10130277;28;20064;-66
2023/04/08 04:43:47;;;;;;;22.58;19.17;;;;;;;;;;10147363;28;20059;-66
2023/04/08 04:48:40;;;;;;;22.23;19.10;;;;;;;;;;10147171;28;20067;-66
2023/04/08 04:53:33;;;;;;;20.27;18.05;;;;;;;;;;10146626;28;20066;-66
2023/04/08 04:58:26;;;;;;;20.88;17.83;;;;;;;;;;10145086;28;20037;-66
2023/04/08 05:03:20;;;;;;;20.23;17.65;;;;;;;;;;10146666;28;20094;-65
2023/04/08 05:08:14;;;;;;;22.95;19.30;;;;;;;;;;10151661;28;20048;-65
2023/04/08 05:13:07;;;;;;;19.50;16.20;;;;;;;;;;10144945;28;20049;-65
2023/04/08 05:18:01;;;;;;;20.83;18.63;;;;;;;;;;10144839;28;20102;-65
2023/04/08 05:22:53;;;;;;;22.02;17.80;;;;;;;;;;10140062;28;20052;-64
2023/04/08 05:27:46;;;;;;;20.45;17.30;;;;;;;;;;10122273;28;20078;-65
2023/04/08 05:32:40;;;;;;;19.05;17.02;;;;;;;;;;10138296;28;20063;-66
2023/04/08 05:37:33;;;;;;;21.58;17.35;;;;;;;;;;10126818;28;20068;-65
2023/04/08 05:42:27;;;;;;;17.88;15.60;;;;;;;;;;10131779;28;20127;-66
2023/04/08 05:47:20;;;;;;;19.65;17.55;;;;;;;;;;10112696;28;20044;-65
2023/04/08 05:52:13;;;;;;;19.70;17.00;;;;;;;;;;10130108;28;20044;-65
2023/04/08 05:57:07;;;;;;;20.77;17.73;;;;;;;;;;10137914;28;20079;-64
2023/04/08 06:02:02;;;;;;;17.63;15.73;;;;;;;;;;10131220;28;20052;-65
2023/04/08 06:06:58;;;;;;;18.20;16.27;;;;;;;;;;10126152;28;20052;-64
2023/04/08 06:11:52;;;;;;;20.08;17.67;;;;;;;;;;10135167;28;20412;-65
2023/04/08 06:16:45;;;;;;;19.10;17.00;;;;;;;;;;10120840;28;20055;-64
2023/04/08 06:21:38;;;;;;;20.90;16.73;;;;;;;;;;10140647;28;20497;-63
2023/04/08 06:26:32;;;;;;;24.83;18.02;;;;;;;;;;10144657;28;20062;-63
2023/04/08 06:31:26;;;;;;;19.92;17.23;;;;;;;;;;10144464;28;20395;-63
2023/04/08 06:36:18;;;;;;;18.23;16.05;;;;;;;;;;10144576;28;20523;-63
2023/04/08 06:41:12;;;;;;;22.10;15.80;;;;;;;;;;10110090;28;20079;-64
2023/04/08 06:46:05;;;;;;;18.30;15.60;;;;;;;;;;10131736;28;20091;-65
2023/04/08 06:50:59;;;;;;;18.13;15.75;;;;;;;;;;10130538;28;20079;-64
2023/04/08 06:55:52;;;;;;;19.38;16.83;;;;;;;;;;10134982;28;20049;-66
2023/04/08 07:00:46;;;;;;;19.73;17.65;;;;;;;;;;10139225;28;20394;-65
2023/04/08 07:05:41;;;;;;;19.20;17.08;;;;;;;;;;10143225;28;20075;-64
2023/04/08 07:10:34;;;;;;;19.80;17.45;;;;;;;;;;10139907;28;20063;-63
2023/04/08 07:15:28;;;;;;;21.05;16.85;;;;;;;;;;10140033;28;20053;-63
2023/04/08 07:20:21;;;;;;;19.25;16.60;;;;;;;;;;10142697;28;20072;-64
2023/04/08 07:25:15;;;;;;;32.88;19.38;;;;;;;;;;10115941;28;20082;-63
2023/04/08 07:30:10;;;;;;;25.92;18.42;;;;;;;;;;10134174;28;20048;-63
2023/04/08 07:35:04;;;;;;;21.90;17.80;;;;;;;;;;10138373;28;20052;-63
2023/04/08 07:39:58;;;;;;;25.15;17.50;;;;;;;;;;10143907;28;20079;-63
2023/04/08 07:44:53;;;;;;;19.75;17.48;;;;;;;;;;10144384;28;20041;-63
2023/04/08 07:49:47;;;;;;;20.30;18.05;;;;;;;;;;10143910;28;20067;-64
2023/04/08 07:54:40;;;;;;;21.67;18.63;;;;;;;;;;10146152;28;20493;-65
2023/04/08 07:59:33;;;;;;;21.95;19.65;;;;;;;;;;10140650;28;20041;-64
2023/04/08 08:04:26;;;;;;;22.70;20.30;;;;;;;;;;10142258;28;20491;-63
2023/04/08 08:09:19;;;;;;;21.00;19.00;;;;;;;;;;10143213;28;20040;-63
2023/04/08 08:14:13;;;;;;;21.95;19.17;;;;;;;;;;10132094;28;20072;-62
2023/04/08 08:19:07;;;;;;;20.48;18.02;;;;;;;;;;10127711;28;20052;-62
2023/04/08 08:24:00;;;;;;;21.65;18.80;;;;;;;;;;10122858;28;20055;-64
2023/04/08 08:28:55;;;;;;;19.42;17.60;;;;;;;;;;10124725;28;20052;-65
2023/04/08 08:33:48;;;;;;;20.63;18.55;;;;;;;;;;10130232;28;20440;-62
2023/04/08 08:38:42;;;;;;;17.88;15.98;;;;;;;;;;10129200;28;20056;-63
2023/04/08 08:43:36;;;;;;;18.38;15.50;;;;;;;;;;10134766;28;20453;-62
2023/04/08 08:48:30;;;;;;;16.98;15.38;;;;;;;;;;10115448;28;20084;-63
2023/04/08 08:53:28;;;;;;;15.63;14.00;;;;;;;;;;10139849;28;20060;-63
2023/04/08 08:58:22;;;;;;;17.55;15.88;;;;;;;;;;10122389;28;20048;-64
2023/04/08 09:03:21;;;;;;;16.58;14.90;;;;;;;;;;10140645;28;20051;-64
2023/04/08 09:08:27;;;;;;;13.13;11.82;;;;;;;;;;10121822;28;20069;-64
2023/04/08 09:13:21;;;;;;;12.68;11.48;;;;;;;;;;10126871;28;20379;-64
2023/04/08 09:18:22;;;;;;;19.30;13.00;;;;;;;;;;10118193;28;20102;-65
2023/04/08 09:23:15;;;;;;;13.05;11.68;;;;;;;;;;10140111;28;20102;-66
2023/04/08 09:28:22;;;;;;;14.60;12.55;;;;;;;;;;10142732;28;20101;-66
2023/04/08 09:33:16;;;;;;;13.45;12.20;;;;;;;;;;10140288;28;20139;-65
2023/04/08 09:38:09;;;;;;;11.65;10.55;;;;;;;;;;10140513;28;20120;-65
2023/04/08 09:43:05;;;;;;;15.10;12.00;;;;;;;;;;10144414;28;20064;-65
2023/04/08 09:48:18;;;;;;;12.40;9.93;;;;;;;;;;10127279;28;20060;-65
2023/04/08 09:53:19;;;;;;;12.93;10.77;;;;;;;;;;10143732;28;20044;-65
2023/04/08 09:58:15;;;;;;;11.43;10.32;;;;;;;;;;10144427;28;20048;-65
2023/04/08 10:03:26;;;;;;;11.35;9.75;;;;;;;;;;10126408;28;20041;-64
2023/04/08 10:08:27;;;;;;;10.10;9.05;;;;;;;;;;10135503;28;20044;-63
2023/04/08 10:13:19;;;;;;;10.25;8.43;;;;;;;;;;10139377;28;20051;-64
2023/04/08 10:18:13;;;;;;;9.35;7.63;;;;;;;;;;10121547;28;20106;-64
2023/04/08 10:23:07;;;;;;;7.13;6.43;;;;;;;;;;10140976;28;20048;-65
2023/04/08 10:28:02;;;;;;;9.02;5.13;;;;;;;;;;10139355;28;20079;-64
2023/04/08 10:32:56;;;;;;;6.90;6.20;;;;;;;;;;10146040;28;20390;-64
2023/04/08 10:37:51;;;;;;;12.90;8.90;;;;;;;;;;10141210;28;20816;-64
2023/04/08 10:42:45;;;;;;;10.77;9.63;;;;;;;;;;10145411;28;20060;-64
2023/04/08 10:47:39;;;;;;;9.85;8.85;;;;;;;;;;10142454;28;20049;-64
2023/04/08 10:52:32;;;;;;;10.35;9.48;;;;;;;;;;10144168;28;20041;-64
2023/04/08 10:57:26;;;;;;;9.00;8.20;;;;;;;;;;10145327;28;20489;-64
2023/04/08 11:02:20;;;;;;;9.95;8.90;;;;;;;;;;10143477;28;20106;-66
2023/04/08 11:07:14;;;;;;;9.73;8.73;;;;;;;;;;10147124;28;20053;-65
2023/04/08 11:12:08;;;;;;;10.15;9.15;;;;;;;;;;10150096;28;20048;-65
2023/04/08 11:17:01;;;;;;;10.65;9.25;;;;;;;;;;10147560;28;21241;-64
2023/04/08 11:21:54;;;;;;;11.20;8.75;;;;;;;;;;10149142;28;20048;-65
2023/04/08 11:26:49;;;;;;;10.18;9.18;;;;;;;;;;10148681;28;20056;-65
2023/04/08 11:31:42;;;;;;;12.27;9.40;;;;;;;;;;10146032;28;20044;-65
2023/04/08 11:36:36;;;;;;;9.80;8.90;;;;;;;;;;10126249;28;20048;-64
2023/04/08 11:41:39;;;;;;;9.18;8.15;;;;;;;;;;10148614;28;20094;-65
2023/04/08 11:46:33;;;;;;;10.95;7.95;;;;;;;;;;10143387;28;20505;-65
2023/04/08 11:51:27;;;;;;;10.02;7.25;;;;;;;;;;10147215;28;20560;-65
2023/04/08 11:56:25;;;;;;;7.88;7.07;;;;;;;;;;10149199;28;20135;-65
2023/04/08 12:01:20;;;;;;;7.60;6.90;;;;;;;;;;10125612;28;20053;-65
2023/04/08 12:06:14;;;;;;;8.90;7.88;;;;;;;;;;10146411;28;20071;-65
2023/04/08 12:11:07;;;;;;;8.95;8.02;;;;;;;;;;10149576;28;20097;-65
2023/04/08 12:16:12;;;;;;;11.93;6.60;;;;;;;;;;10147744;28;20071;-65
2023/04/08 12:21:06;;;;;;;11.40;6.32;;;;;;;;;;10148465;28;20044;-65
2023/04/08 12:25:59;;;;;;;7.80;7.00;;;;;;;;;;10149141;28;20048;-65
2023/04/08 12:30:52;;;;;;;7.60;6.88;;;;;;;;;;10129679;28;20082;-65
2023/04/08 12:35:45;;;;;;;8.27;6.05;;;;;;;;;;10123689;28;20044;-65
2023/04/08 12:40:38;;;;;;;7.05;6.28;;;;;;;;;;10143630;28;20125;-66
2023/04/08 12:45:32;;;;;;;7.53;6.60;;;;;;;;;;10142666;28;20076;-65
2023/04/08 12:50:25;;;;;;;7.95;6.22;;;;;;;;;;10129197;28;20053;-64
2023/04/08 12:55:23;;;;;;;7.68;6.55;;;;;;;;;;10139825;28;20048;-64
2023/04/08 13:00:18;;;;;;;10.40;9.45;;;;;;;;;;10148408;28;20048;-64
2023/04/08 13:05:11;;;;;;;8.25;7.45;;;;;;;;;;10129376;28;20677;-65
2023/04/08 13:10:08;;;;;;;9.40;6.68;;;;;;;;;;10135451;28;20059;-65
2023/04/08 13:15:01;;;;;;;10.07;6.35;;;;;;;;;;10129072;28;20041;-65
2023/04/08 13:19:54;;;;;;;9.07;6.57;;;;;;;;;;10138376;28;20052;-65
2023/04/08 13:24:47;;;;;;;9.70;5.90;;;;;;;;;;10129717;28;20064;-65
2023/04/08 13:29:41;;;;;;;6.60;6.00;;;;;;;;;;10141764;28;20539;-65
2023/04/08 13:34:35;;;;;;;8.25;6.43;;;;;;;;;;10127036;28;20127;-67
2023/04/08 13:39:28;;;;;;;14.93;7.65;;;;;;;;;;10145414;28;20416;-67
2023/04/08 13:44:21;;;;;;;8.93;8.00;;;;;;;;;;10145171;28;20040;-67
2023/04/08 13:49:15;;;;;;;9.23;8.10;;;;;;;;;;10144538;28;20091;-66
2023/04/08 13:54:07;;;;;;;8.80;7.90;;;;;;;;;;10145581;28;20076;-67
2023/04/08 13:59:03;;;;;;;10.70;9.75;;;;;;;;;;10124394;28;20041;-67
2023/04/08 14:03:56;;;;;;;7.75;7.05;;;;;;;;;;10144851;28;20071;-67
2023/04/08 14:08:49;;;;;;;7.82;7.13;;;;;;;;;;10135267;28;20048;-65
2023/04/08 14:13:43;;;;;;;7.43;6.75;;;;;;;;;;10138447;28;20565;-68
2023/04/08 14:18:38;;;;;;;8.82;7.70;;;;;;;;;;10138282;28;20059;-68
2023/04/08 14:23:31;;;;;;;10.77;7.18;;;;;;;;;;10139070;28;20797;-66
2023/04/08 14:28:24;;;;;;;7.93;5.00;;;;;;;;;;10137023;28;20049;-65
2023/04/08 14:33:18;;;;;;;6.07;5.05;;;;;;;;;;10137226;28;20072;-65
2023/04/08 14:38:12;;;;;;;6.30;5.70;;;;;;;;;;10130322;28;20049;-65
2023/04/08 14:43:05;;;;;;;8.98;6.55;;;;;;;;;;10139106;28;20508;-64
2023/04/08 14:47:58;;;;;;;8.02;6.50;;;;;;;;;;10141555;28;20501;-66
2023/04/08 14:52:53;;;;;;;7.47;6.68;;;;;;;;;;10137796;28;20477;-65
2023/04/08 14:57:46;;;;;;;10.93;6.20;;;;;;;;;;10136644;28;20497;-63
2023/04/08 15:02:40;;;;;;;5.78;5.20;;;;;;;;;;10133856;28;20041;-63
2023/04/08 15:07:32;;;;;;;6.50;5.90;;;;;;;;;;10138190;28;20052;-65
2023/04/08 15:12:27;;;;;;;6.95;5.43;;;;;;;;;;10126188;28;20048;-66
2023/04/08 15:17:25;;;;;;;6.18;5.55;;;;;;;;;;10139866;28;20049;-65
2023/04/08 15:22:18;;;;;;;7.75;6.95;;;;;;;;;;10141169;28;20412;-65
2023/04/08 15:27:10;;;;;;;9.70;6.50;;;;;;;;;;10136208;28;20482;-65
2023/04/08 15:32:04;;;;;;;34.92;25.70;;;;;;;;;;10144738;28;20055;-65
2023/04/08 15:36:58;;;;;;;6.65;6.05;;;;;;;;;;10140465;28;20577;-66
2023/04/08 15:41:51;;;;;;;7.68;6.60;;;;;;;;;;10142283;28;20052;-66
2023/04/08 15:46:43;;;;;;;9.43;5.78;;;;;;;;;;10139995;28;20079;-65
2023/04/08 15:51:37;;;;;;;6.28;5.68;;;;;;;;;;10142262;28;20044;-66
2023/04/08 15:56:30;;;;;;;8.07;6.55;;;;;;;;;;10136126;28;20103;-66
2023/04/08 16:01:23;;;;;;;6.60;5.07;;;;;;;;;;10140805;28;20048;-66
2023/04/08 16:06:17;;;;;;;7.28;5.93;;;;;;;;;;10142408;28;20036;-65
2023/04/08 16:11:10;;;;;;;6.90;5.43;;;;;;;;;;10140262;28;20040;-65
2023/04/08 16:16:02;;;;;;;6.97;6.05;;;;;;;;;;10139837;28;20063;-65
2023/04/08 16:20:57;;;;;;;5.70;5.20;;;;;;;;;;10136848;28;20067;-66
2023/04/08 16:25:51;;;;;;;6.05;5.35;;;;;;;;;;10141941;28;20044;-66
2023/04/08 16:30:46;;;;;;;6.88;5.28;;;;;;;;;;10140842;28;20839;-66
2023/04/08 16:35:40;;;;;;;6.72;5.47;;;;;;;;;;10142610;28;20049;-65
2023/04/08 16:40:33;;;;;;;7.65;5.28;;;;;;;;;;10141674;28;20061;-66
2023/04/08 16:45:29;;;;;;;6.20;5.10;;;;;;;;;;10140588;28;20127;-66
2023/04/08 16:50:22;;;;;;;6.20;5.22;;;;;;;;;;10140984;28;20052;-66
2023/04/08 16:55:16;;;;;;;6.93;5.03;;;;;;;;;;10142255;28;20041;-66
2023/04/08 17:00:11;;;;;;;11.40;5.30;;;;;;;;;;10137365;28;20063;-66
2023/04/08 17:05:06;;;;;;;6.43;4.55;;;;;;;;;;10143436;28;20056;-65
2023/04/08 17:10:00;;;;;;;8.57;5.32;;;;;;;;;;10138851;28;20076;-66
2023/04/08 17:14:54;;;;;;;7.07;4.45;;;;;;;;;;10138093;28;20136;-65
2023/04/08 17:19:48;;;;;;;7.75;5.22;;;;;;;;;;10136886;28;20053;-66
2023/04/08 17:24:40;;;;;;;7.55;4.35;;;;;;;;;;10142098;28;20052;-66
2023/04/08 17:29:33;;;;;;;9.85;6.38;;;;;;;;;;10143059;28;20044;-66
2023/04/08 17:34:28;;;;;;;7.45;5.45;;;;;;;;;;10138212;28;20452;-65
2023/04/08 17:39:21;;;;;;;9.15;6.05;;;;;;;;;;10138856;28;20127;-67
2023/04/08 17:44:16;;;;;;;8.40;6.07;;;;;;;;;;10133191;28;20131;-67
2023/04/08 17:49:13;;;;;;;9.73;5.50;;;;;;;;;;10123359;28;20064;-66
2023/04/08 17:54:06;;;;;;;6.43;5.82;;;;;;;;;;10132424;28;20713;-66
2023/04/08 17:59:00;;;;;;;7.78;5.88;;;;;;;;;;10133064;28;20424;-66
2023/04/08 18:03:54;;;;;;;10.68;7.80;;;;;;;;;;10124227;28;20082;-66
2023/04/08 18:08:48;;;;;;;8.73;5.93;;;;;;;;;;10129544;28;20059;-66
2023/04/08 18:13:42;;;;;;;15.38;6.57;;;;;;;;;;10134409;28;20040;-67
2023/04/08 18:18:37;;;;;;;6.85;6.25;;;;;;;;;;10134088;28;20189;-67
2023/04/08 18:23:30;;;;;;;6.22;5.72;;;;;;;;;;10136538;28;20555;-67
2023/04/08 18:28:24;;;;;;;13.43;5.57;;;;;;;;;;10136601;28;20064;-67
2023/04/08 18:33:18;;;;;;;17.02;6.70;;;;;;;;;;10135444;28;20041;-67
2023/04/08 18:38:11;;;;;;;8.18;6.85;;;;;;;;;;10136203;28;20489;-68
2023/04/08 18:43:04;;;;;;;8.20;5.82;;;;;;;;;;10138306;28;20051;-71
2023/04/08 18:47:58;;;;;;;6.72;5.35;;;;;;;;;;10128372;28;20060;-66
2023/04/08 18:52:51;;;;;;;7.22;6.10;;;;;;;;;;10131771;28;20049;-66
2023/04/08 18:57:44;;;;;;;10.57;6.30;;;;;;;;;;10132557;28;20406;-65
2023/04/08 19:02:38;;;;;;;7.75;6.53;;;;;;;;;;10130179;28;20048;-65
2023/04/08 19:07:31;;;;;;;11.40;7.10;;;;;;;;;;10124716;28;20060;-65
2023/04/08 19:12:25;;;;;;;10.57;8.20;;;;;;;;;;10124514;28;20132;-65
2023/04/08 19:17:17;;;;;;;13.70;8.77;;;;;;;;;;10135067;28;20045;-70
2023/04/08 19:22:10;;;;;;;9.73;8.73;;;;;;;;;;10138432;28;20048;-66
2023/04/08 19:27:03;;;;;;;10.35;9.02;;;;;;;;;;10123069;28;20049;-70
2023/04/08 19:31:58;;;;;;;9.82;8.45;;;;;;;;;;10132885;28;20053;-72
2023/04/08 19:36:51;;;;;;;9.80;8.55;;;;;;;;;;10137899;28;20504;-65
2023/04/08 19:41:44;;;;;;;9.02;7.45;;;;;;;;;;10113551;28;20076;-65
2023/04/08 19:46:37;;;;;;;8.52;6.72;;;;;;;;;;10129901;28;20378;-65
2023/04/08 19:51:31;;;;;;;8.25;5.88;;;;;;;;;;10139659;28;20052;-65
2023/04/08 19:56:25;;;;;;;7.53;6.22;;;;;;;;;;10118978;28;20551;-66
2023/04/08 20:01:18;;;;;;;9.43;6.22;;;;;;;;;;10141496;28;20072;-64
2023/04/08 20:06:11;;;;;;;6.85;6.18;;;;;;;;;;10137460;28;20047;-64
2023/04/08 20:11:04;;;;;;;7.47;6.68;;;;;;;;;;10133574;28;20047;-66
2023/04/08 20:15:57;;;;;;;6.57;5.95;;;;;;;;;;10141414;28;20041;-66
2023/04/08 20:20:51;;;;;;;6.72;5.55;;;;;;;;;;10134089;28;20078;-64
2023/04/08 20:25:44;;;;;;;7.60;5.95;;;;;;;;;;10141590;28;20041;-65
2023/04/08 20:30:38;;;;;;;7.68;6.72;;;;;;;;;;10136424;28;20079;-63
2023/04/08 20:35:32;;;;;;;8.98;6.75;;;;;;;;;;10129244;28;20099;-65
2023/04/08 20:40:25;;;;;;;11.27;7.05;;;;;;;;;;10124226;28;20061;-65
2023/04/08 20:45:19;;;;;;;9.45;6.22;;;;;;;;;;10135581;28;20079;-65
2023/04/08 20:50:12;;;;;;;6.78;6.07;;;;;;;;;;10129809;28;20065;-68
2023/04/08 20:55:08;;;;;;;7.35;6.65;;;;;;;;;;10130129;28;20047;-68
2023/04/08 21:00:04;;;;;;;8.18;6.00;;;;;;;;;;10130504;28;20069;-65
2023/04/08 21:04:57;;;;;;;7.07;6.38;;;;;;;;;;10115263;28;20048;-66
2023/04/08 21:09:50;;;;;;;7.63;6.53;;;;;;;;;;10129850;28;20102;-66
2023/04/08 21:14:44;;;;;;;6.68;6.03;;;;;;;;;;10126660;28;20057;-65
2023/04/08 21:19:38;;;;;;;11.90;6.45;;;;;;;;;;10128431;28;20049;-65
2023/04/08 21:24:30;;;;;;;8.45;7.13;;;;;;;;;;10131947;28;20055;-65
2023/04/08 21:29:24;;;;;;;10.07;6.30;;;;;;;;;;10126337;28;20076;-64
2023/04/08 21:34:16;;;;;;;7.93;7.22;;;;;;;;;;10136243;28;20037;-65
2023/04/08 21:39:09;;;;;;;7.05;6.35;;;;;;;;;;10129453;28;20045;-65
2023/04/08 21:44:02;;;;;;;7.35;6.65;;;;;;;;;;10134388;28;20120;-65
2023/04/08 21:48:57;;;;;;;7.22;6.53;;;;;;;;;;10124926;28;20056;-65
2023/04/08 21:53:50;;;;;;;8.35;6.45;;;;;;;;;;10129399;28;20047;-66
2023/04/08 21:58:43;;;;;;;8.50;7.60;;;;;;;;;;10126760;28;20106;-65
2023/04/08 22:03:37;;;;;;;11.90;7.15;;;;;;;;;;10134877;28;20045;-65
2023/04/08 22:08:31;;;;;;;8.23;7.47;;;;;;;;;;10134235;28;20053;-64
2023/04/08 22:13:25;;;;;;;7.35;6.55;;;;;;;;;;10141132;28;20041;-66
2023/04/08 22:18:19;;;;;;;8.00;7.20;;;;;;;;;;10137647;28;20075;-66
2023/04/08 22:23:13;;;;;;;7.93;7.05;;;;;;;;;;10141514;28;20056;-65
2023/04/08 22:28:05;;;;;;;9.43;8.55;;;;;;;;;;10144811;28;20131;-64
2023/04/08 22:32:59;;;;;;;8.15;7.35;;;;;;;;;;10152597;28;20121;-64
2023/04/08 22:37:53;;;;;;;8.52;7.82;;;;;;;;;;10152188;28;20527;-64
2023/04/08 22:42:47;;;;;;;9.90;8.38;;;;;;;;;;10153360;28;20056;-64
2023/04/08 22:47:41;;;;;;;8.95;7.93;;;;;;;;;;10152013;28;20063;-64
2023/04/08 22:52:33;;;;;;;10.13;8.25;;;;;;;;;;10152384;28;20053;-64
2023/04/08 22:57:26;;;;;;;9.75;8.75;;;;;;;;;;10151667;28;20041;-64
2023/04/08 23:02:20;;;;;;;10.40;8.77;;;;;;;;;;10151881;28;20068;-64
2023/04/08 23:07:14;;;;;;;8.73;7.80;;;;;;;;;;10151161;28;20079;-64
2023/04/08 23:12:07;;;;;;;8.57;7.65;;;;;;;;;;10151270;28;20098;-64
2023/04/08 23:17:01;;;;;;;10.23;9.20;;;;;;;;;;10151491;28;20119;-63
2023/04/08 23:21:57;;;;;;;10.60;7.68;;;;;;;;;;10152928;28;20052;-64
2023/04/08 23:26:51;;;;;;;9.32;7.35;;;;;;;;;;10151190;28;20557;-64
2023/04/08 23:31:44;;;;;;;9.05;7.57;;;;;;;;;;10150136;28;20055;-64
2023/04/08 23:36:38;;;;;;;10.02;8.60;;;;;;;;;;10148100;28;20094;-64
2023/04/08 23:41:32;;;;;;;8.70;7.90;;;;;;;;;;10149494;28;20514;-64
2023/04/08 23:46:26;;;;;;;10.88;8.75;;;;;;;;;;10149570;28;20464;-65
2023/04/08 23:51:19;;;;;;;9.75;8.85;;;;;;;;;;10144492;28;20048;-65
2023/04/08 23:56:12;;;;;;;9.57;8.57;;;;;;;;;;10141708;28;20127;-65
